sensor_id;sensor_type;location;lat;lon;timestamp;pressure;altitude;pressure_sealevel;temperature;humidity
45403;BME280;47427;51.976;5.326;2023-03-04T00:01:28;102623.88;;;6.05;81.23
45403;BME280;47427;51.976;5.326;2023-03-04T00:04:51;102638.16;;;6.10;81.60
45403;BME280;47427;51.976;5.326;2023-03-04T00:08:12;102638.41;;;6.13;81.69
45403;BME280;47427;51.976;5.326;2023-03-04T00:11:35;102636.47;;;6.11;81.59
45403;BME280;47427;51.976;5.326;2023-03-04T00:14:58;102638.16;;;6.10;81.68
45403;BME280;47427;51.976;5.326;2023-03-04T00:18:20;102641.56;;;6.09;82.16
45403;BME280;47427;51.976;5.326;2023-03-04T00:21:43;102635.31;;;6.07;82.25
45403;BME280;47427;51.976;5.326;2023-03-04T00:25:05;102633.53;;;6.06;82.52
45403;BME280;47427;51.976;5.326;2023-03-04T00:28:28;102641.69;;;5.99;82.61
45403;BME280;47427;51.976;5.326;2023-03-04T00:31:51;102630.91;;;5.94;83.08
45403;BME280;47427;51.976;5.326;2023-03-04T00:35:13;102630.13;;;5.95;83.25
45403;BME280;47427;51.976;5.326;2023-03-04T00:38:35;102628.72;;;5.89;83.45
45403;BME280;47427;51.976;5.326;2023-03-04T00:41:58;102630.44;;;5.88;83.72
45403;BME280;47427;51.976;5.326;2023-03-04T00:45:20;102635.06;;;5.92;83.78
45403;BME280;47427;51.976;5.326;2023-03-04T00:48:43;102635.66;;;6.00;83.38
45403;BME280;47427;51.976;5.326;2023-03-04T00:52:05;102634.75;;;5.99;84.16
45403;BME280;47427;51.976;5.326;2023-03-04T00:55:28;102630.78;;;5.93;84.08
45403;BME280;47427;51.976;5.326;2023-03-04T00:58:50;102636.91;;;5.93;84.10
45403;BME280;47427;51.976;5.326;2023-03-04T01:02:12;102640.19;;;5.91;84.04
45403;BME280;47427;51.976;5.326;2023-03-04T01:05:35;102637.34;;;5.88;84.30
45403;BME280;47427;51.976;5.326;2023-03-04T01:08:58;102628.38;;;5.84;84.18
45403;BME280;47427;51.976;5.326;2023-03-04T01:12:19;102627.72;;;5.86;84.52
45403;BME280;47427;51.976;5.326;2023-03-04T01:16:01;102638.25;;;5.88;84.28
45403;BME280;47427;51.976;5.326;2023-03-04T01:19:26;102631.34;;;5.89;84.33
45403;BME280;47427;51.976;5.326;2023-03-04T01:22:49;102621.72;;;5.88;84.49
45403;BME280;47427;51.976;5.326;2023-03-04T01:26:12;102630.66;;;5.91;84.61
45403;BME280;47427;51.976;5.326;2023-03-04T01:29:33;102627.25;;;5.92;84.87
45403;BME280;47427;51.976;5.326;2023-03-04T01:32:57;102625.31;;;5.90;85.06
45403;BME280;47427;51.976;5.326;2023-03-04T01:36:19;102607.69;;;5.85;85.51
45403;BME280;47427;51.976;5.326;2023-03-04T01:39:41;102611.31;;;5.88;85.73
45403;BME280;47427;51.976;5.326;2023-03-04T01:43:04;102601.56;;;5.85;85.85
45403;BME280;47427;51.976;5.326;2023-03-04T01:46:26;102602.34;;;5.84;86.20
45403;BME280;47427;51.976;5.326;2023-03-04T01:49:53;102598.84;;;5.83;86.23
45403;BME280;47427;51.976;5.326;2023-03-04T01:53:24;102591.03;;;5.83;85.78
45403;BME280;47427;51.976;5.326;2023-03-04T01:56:48;102589.09;;;5.81;85.93
45403;BME280;47427;51.976;5.326;2023-03-04T02:03:43;102590.22;;;5.84;85.69
45403;BME280;47427;51.976;5.326;2023-03-04T02:07:05;102577.66;;;5.79;86.22
45403;BME280;47427;51.976;5.326;2023-03-04T02:10:29;102577.44;;;5.76;86.34
45403;BME280;47427;51.976;5.326;2023-03-04T02:13:51;102571.41;;;5.77;86.56
45403;BME280;47427;51.976;5.326;2023-03-04T02:17:15;102578.94;;;5.72;86.50
45403;BME280;47427;51.976;5.326;2023-03-04T02:21:04;102574.63;;;5.73;86.62
45403;BME280;47427;51.976;5.326;2023-03-04T02:24:35;102575.31;;;5.70;86.21
45403;BME280;47427;51.976;5.326;2023-03-04T02:28:01;102562.16;;;5.69;85.76
45403;BME280;47427;51.976;5.326;2023-03-04T02:34:49;102555.25;;;5.69;85.49
45403;BME280;47427;51.976;5.326;2023-03-04T02:38:11;102551.06;;;5.71;85.56
45403;BME280;47427;51.976;5.326;2023-03-04T02:41:34;102559.41;;;5.67;85.13
45403;BME280;47427;51.976;5.326;2023-03-04T02:45:00;102552.53;;;5.68;85.59
45403;BME280;47427;51.976;5.326;2023-03-04T02:48:22;102549.81;;;5.66;85.23
45403;BME280;47427;51.976;5.326;2023-03-04T02:52:13;102537.59;;;5.65;85.21
45403;BME280;47427;51.976;5.326;2023-03-04T02:55:37;102541.78;;;5.63;84.86
45403;BME280;47427;51.976;5.326;2023-03-04T02:59:01;102535.09;;;5.67;85.07
45403;BME280;47427;51.976;5.326;2023-03-04T03:02:24;102522.88;;;5.65;84.95
45403;BME280;47427;51.976;5.326;2023-03-04T03:05:47;102540.41;;;5.68;84.72
45403;BME280;47427;51.976;5.326;2023-03-04T03:09:10;102531.72;;;5.68;84.62
45403;BME280;47427;51.976;5.326;2023-03-04T03:12:32;102530.00;;;5.68;85.29
45403;BME280;47427;51.976;5.326;2023-03-04T03:15:54;102524.78;;;5.68;84.62
45403;BME280;47427;51.976;5.326;2023-03-04T03:19:18;102531.81;;;5.69;85.37
45403;BME280;47427;51.976;5.326;2023-03-04T03:22:40;102528.28;;;5.69;84.96
45403;BME280;47427;51.976;5.326;2023-03-04T03:26:02;102533.38;;;5.67;85.37
45403;BME280;47427;51.976;5.326;2023-03-04T03:29:26;102524.66;;;5.67;85.45
45403;BME280;47427;51.976;5.326;2023-03-04T03:32:49;102524.66;;;5.67;85.20
45403;BME280;47427;51.976;5.326;2023-03-04T03:36:12;102515.97;;;5.66;85.61
45403;BME280;47427;51.976;5.326;2023-03-04T03:39:34;102522.66;;;5.62;84.94
45403;BME280;47427;51.976;5.326;2023-03-04T03:42:56;102517.09;;;5.58;85.15
45403;BME280;47427;51.976;5.326;2023-03-04T03:46:19;102510.06;;;5.57;85.32
45403;BME280;47427;51.976;5.326;2023-03-04T03:49:42;102519.03;;;5.60;85.43
45403;BME280;47427;51.976;5.326;2023-03-04T03:53:03;102521.84;;;5.63;85.54
45403;BME280;47427;51.976;5.326;2023-03-04T03:56:26;102522.97;;;5.67;85.36
45403;BME280;47427;51.976;5.326;2023-03-04T03:59:49;102527.19;;;5.65;85.46
45403;BME280;47427;51.976;5.326;2023-03-04T04:03:14;102526.25;;;5.64;85.44
45403;BME280;47427;51.976;5.326;2023-03-04T04:06:38;102525.00;;;5.59;85.57
45403;BME280;47427;51.976;5.326;2023-03-04T04:09:59;102522.53;;;5.61;85.59
45403;BME280;47427;51.976;5.326;2023-03-04T04:13:22;102520.72;;;5.60;85.71
45403;BME280;47427;51.976;5.326;2023-03-04T04:16:45;102519.03;;;5.60;86.08
45403;BME280;47427;51.976;5.326;2023-03-04T04:20:08;102528.75;;;5.63;86.00
45403;BME280;47427;51.976;5.326;2023-03-04T04:23:31;102528.63;;;5.61;86.30
45403;BME280;47427;51.976;5.326;2023-03-04T04:26:52;102535.69;;;5.62;86.31
45403;BME280;47427;51.976;5.326;2023-03-04T04:30:15;102539.72;;;5.59;86.90
45403;BME280;47427;51.976;5.326;2023-03-04T04:33:38;102536.69;;;5.53;87.00
45403;BME280;47427;51.976;5.326;2023-03-04T04:36:59;102543.34;;;5.49;86.06
45403;BME280;47427;51.976;5.326;2023-03-04T04:40:22;102538.81;;;5.47;85.75
45403;BME280;47427;51.976;5.326;2023-03-04T04:43:45;102535.31;;;5.46;85.55
45403;BME280;47427;51.976;5.326;2023-03-04T04:47:08;102526.63;;;5.46;85.82
45403;BME280;47427;51.976;5.326;2023-03-04T04:50:31;102531.94;;;5.47;85.59
45403;BME280;47427;51.976;5.326;2023-03-04T04:53:52;102528.41;;;5.47;86.15
45403;BME280;47427;51.976;5.326;2023-03-04T04:57:15;102536.34;;;5.48;86.23
45403;BME280;47427;51.976;5.326;2023-03-04T05:00:37;102526.63;;;5.46;86.35
45403;BME280;47427;51.976;5.326;2023-03-04T05:03:59;102534.66;;;5.49;86.94
45403;BME280;47427;51.976;5.326;2023-03-04T05:07:22;102538.94;;;5.48;87.21
45403;BME280;47427;51.976;5.326;2023-03-04T05:10:45;102537.03;;;5.46;87.61
45403;BME280;47427;51.976;5.326;2023-03-04T05:14:06;102545.66;;;5.45;88.54
45403;BME280;47427;51.976;5.326;2023-03-04T05:17:29;102534.06;;;5.41;88.59
45403;BME280;47427;51.976;5.326;2023-03-04T05:20:57;102539.97;;;5.38;89.64
45403;BME280;47427;51.976;5.326;2023-03-04T05:24:20;102540.84;;;5.39;90.00
45403;BME280;47427;51.976;5.326;2023-03-04T05:27:43;102543.81;;;5.43;90.21
45403;BME280;47427;51.976;5.326;2023-03-04T05:31:05;102539.50;;;5.44;90.81
45403;BME280;47427;51.976;5.326;2023-03-04T05:34:27;102542.91;;;5.43;91.35
45403;BME280;47427;51.976;5.326;2023-03-04T05:37:50;102546.19;;;5.40;92.16
45403;BME280;47427;51.976;5.326;2023-03-04T05:41:13;102542.47;;;5.37;92.70
45403;BME280;47427;51.976;5.326;2023-03-04T05:44:35;102537.34;;;5.38;93.10
45403;BME280;47427;51.976;5.326;2023-03-04T05:47:57;102542.69;;;5.40;93.61
45403;BME280;47427;51.976;5.326;2023-03-04T05:51:20;102533.06;;;5.39;93.59
45403;BME280;47427;51.976;5.326;2023-03-04T05:54:43;102543.38;;;5.37;94.54
45403;BME280;47427;51.976;5.326;2023-03-04T05:58:05;102540.53;;;5.34;94.13
45403;BME280;47427;51.976;5.326;2023-03-04T06:01:27;102541.53;;;5.36;94.64
45403;BME280;47427;51.976;5.326;2023-03-04T06:04:51;102538.03;;;5.36;94.52
45403;BME280;47427;51.976;5.326;2023-03-04T06:08:13;102542.69;;;5.40;94.84
45403;BME280;47427;51.976;5.326;2023-03-04T06:11:36;102543.16;;;5.34;95.42
45403;BME280;47427;51.976;5.326;2023-03-04T06:14:57;102540.41;;;5.33;95.81
45403;BME280;47427;51.976;5.326;2023-03-04T06:18:20;102551.72;;;5.33;96.40
45403;BME280;47427;51.976;5.326;2023-03-04T06:21:43;102537.47;;;5.28;96.93
45403;BME280;47427;51.976;5.326;2023-03-04T06:25:05;102545.41;;;5.30;97.29
45403;BME280;47427;51.976;5.326;2023-03-04T06:28:28;102544.72;;;5.32;97.34
45403;BME280;47427;51.976;5.326;2023-03-04T06:31:51;102532.03;;;5.25;97.49
45403;BME280;47427;51.976;5.326;2023-03-04T06:35:14;102552.53;;;5.32;98.23
45403;BME280;47427;51.976;5.326;2023-03-04T06:38:37;102544.94;;;5.35;98.55
45403;BME280;47427;51.976;5.326;2023-03-04T06:41:59;102537.13;;;5.35;98.61
45403;BME280;47427;51.976;5.326;2023-03-04T06:45:20;102545.97;;;5.37;98.74
45403;BME280;47427;51.976;5.326;2023-03-04T06:48:43;102548.00;;;5.41;98.42
45403;BME280;47427;51.976;5.326;2023-03-04T06:52:05;102548.34;;;5.46;98.64
45403;BME280;47427;51.976;5.326;2023-03-04T06:55:47;102547.56;;;5.47;98.56
45403;BME280;47427;51.976;5.326;2023-03-04T06:59:08;102546.09;;;5.51;99.00
45403;BME280;47427;51.976;5.326;2023-03-04T07:02:31;102558.88;;;5.48;99.01
45403;BME280;47427;51.976;5.326;2023-03-04T07:05:54;102552.09;;;5.50;98.79
45403;BME280;47427;51.976;5.326;2023-03-04T07:09:16;102550.16;;;5.59;98.93
45403;BME280;47427;51.976;5.326;2023-03-04T07:12:40;102551.38;;;5.64;98.34
45403;BME280;47427;51.976;5.326;2023-03-04T07:16:05;102554.22;;;5.67;98.27
45403;BME280;47427;51.976;5.326;2023-03-04T07:19:29;102567.22;;;5.67;97.46
45403;BME280;47427;51.976;5.326;2023-03-04T07:22:51;102565.09;;;5.85;97.68
45403;BME280;47427;51.976;5.326;2023-03-04T07:26:13;102563.91;;;6.28;97.22
45403;BME280;47427;51.976;5.326;2023-03-04T07:29:36;102562.75;;;6.37;96.32
45403;BME280;47427;51.976;5.326;2023-03-04T07:32:58;102542.03;;;6.26;96.33
45403;BME280;47427;51.976;5.326;2023-03-04T07:36:20;102563.00;;;6.28;96.73
45403;BME280;47427;51.976;5.326;2023-03-04T07:39:43;102577.03;;;6.30;96.27
45403;BME280;47427;51.976;5.326;2023-03-04T07:43:05;102570.59;;;6.62;96.18
45403;BME280;47427;51.976;5.326;2023-03-04T07:46:27;102572.19;;;6.60;97.55
45403;BME280;47427;51.976;5.326;2023-03-04T07:49:49;102566.31;;;6.76;98.22
45403;BME280;47427;51.976;5.326;2023-03-04T07:53:12;102570.66;;;7.13;97.03
45403;BME280;47427;51.976;5.326;2023-03-04T07:56:33;102586.56;;;7.43;95.36
45403;BME280;47427;51.976;5.326;2023-03-04T07:59:56;102583.78;;;7.53;94.28
45403;BME280;47427;51.976;5.326;2023-03-04T08:03:19;102587.91;;;7.63;93.70
45403;BME280;47427;51.976;5.326;2023-03-04T08:06:42;102577.97;;;7.71;93.14
45403;BME280;47427;51.976;5.326;2023-03-04T08:10:05;102593.13;;;7.63;92.63
45403;BME280;47427;51.976;5.326;2023-03-04T08:13:28;102584.69;;;7.67;92.14
45403;BME280;47427;51.976;5.326;2023-03-04T08:16:50;102582.38;;;7.98;91.15
45403;BME280;47427;51.976;5.326;2023-03-04T08:20:13;102581.44;;;8.11;89.95
45403;BME280;47427;51.976;5.326;2023-03-04T08:23:37;102583.66;;;8.18;89.52
45403;BME280;47427;51.976;5.326;2023-03-04T08:27:00;102561.75;;;8.03;88.76
45403;BME280;47427;51.976;5.326;2023-03-04T08:30:23;102580.28;;;8.48;88.64
45403;BME280;47427;51.976;5.326;2023-03-04T08:33:46;102595.50;;;8.27;87.70
45403;BME280;47427;51.976;5.326;2023-03-04T08:37:09;102591.78;;;8.23;88.27
45403;BME280;47427;51.976;5.326;2023-03-04T08:40:30;102596.09;;;8.36;88.58
45403;BME280;47427;51.976;5.326;2023-03-04T08:43:53;102591.03;;;8.80;86.62
45403;BME280;47427;51.976;5.326;2023-03-04T08:47:16;102600.81;;;8.98;86.05
45403;BME280;47427;51.976;5.326;2023-03-04T08:50:37;102590.38;;;9.57;84.45
45403;BME280;47427;51.976;5.326;2023-03-04T08:54:01;102589.41;;;10.01;82.58
45403;BME280;47427;51.976;5.326;2023-03-04T08:57:23;102589.41;;;10.01;81.15
45403;BME280;47427;51.976;5.326;2023-03-04T09:00:48;102579.50;;;10.43;78.90
45403;BME280;47427;51.976;5.326;2023-03-04T09:04:13;102579.75;;;11.31;76.45
45403;BME280;47427;51.976;5.326;2023-03-04T09:07:34;102574.44;;;11.30;75.10
45403;BME280;47427;51.976;5.326;2023-03-04T09:10:57;102573.50;;;10.78;76.54
45403;BME280;47427;51.976;5.326;2023-03-04T09:14:20;102567.69;;;10.35;77.34
45403;BME280;47427;51.976;5.326;2023-03-04T09:17:41;102568.25;;;10.29;77.78
45403;BME280;47427;51.976;5.326;2023-03-04T09:21:03;102567.84;;;9.75;78.81
45403;BME280;47427;51.976;5.326;2023-03-04T09:24:26;102571.94;;;9.26;81.36
45403;BME280;47427;51.976;5.326;2023-03-04T09:27:48;102574.06;;;8.88;84.43
45403;BME280;47427;51.976;5.326;2023-03-04T09:31:13;102571.19;;;8.56;87.30
45403;BME280;47427;51.976;5.326;2023-03-04T09:34:34;102577.19;;;8.40;89.88
45403;BME280;47427;51.976;5.326;2023-03-04T09:37:58;102583.66;;;8.05;95.67
45403;BME280;47427;51.976;5.326;2023-03-04T09:41:41;102586.47;;;8.08;100.00
45403;BME280;47427;51.976;5.326;2023-03-04T09:45:05;102579.69;;;8.38;100.00
45403;BME280;47427;51.976;5.326;2023-03-04T09:48:43;102565.88;;;8.13;100.00
45403;BME280;47427;51.976;5.326;2023-03-04T09:52:50;102576.44;;;8.01;100.00
45403;BME280;47427;51.976;5.326;2023-03-04T09:56:17;102574.13;;;7.92;100.00
45403;BME280;47427;51.976;5.326;2023-03-04T10:04:04;102572.84;;;9.56;100.00
45403;BME280;47427;51.976;5.326;2023-03-04T10:07:36;102570.84;;;9.52;100.00
45403;BME280;47427;51.976;5.326;2023-03-04T10:15:42;102560.25;;;12.92;84.30
45403;BME280;47427;51.976;5.326;2023-03-04T10:23:18;102548.63;;;16.76;70.06
45403;BME280;47427;51.976;5.326;2023-03-04T10:26:51;102549.38;;;14.57;73.53
45403;BME280;47427;51.976;5.326;2023-03-04T10:30:45;102542.56;;;12.70;77.30
45403;BME280;47427;51.976;5.326;2023-03-04T10:34:12;102549.75;;;11.44;80.34
45403;BME280;47427;51.976;5.326;2023-03-04T10:37:49;102547.03;;;10.74;84.80
45403;BME280;47427;51.976;5.326;2023-03-04T10:41:21;102549.56;;;10.39;86.91
45403;BME280;47427;51.976;5.326;2023-03-04T10:44:54;102545.28;;;10.91;86.36
45403;BME280;47427;51.976;5.326;2023-03-04T10:48:26;102533.78;;;11.75;83.53
45403;BME280;47427;51.976;5.326;2023-03-04T10:55:30;102526.69;;;13.09;76.38
45403;BME280;47427;51.976;5.326;2023-03-04T10:59:42;102534.06;;;11.99;78.29
45403;BME280;47427;51.976;5.326;2023-03-04T11:03:34;102533.38;;;10.97;81.62
45403;BME280;47427;51.976;5.326;2023-03-04T11:06:55;102526.59;;;10.35;84.72
45403;BME280;47427;51.976;5.326;2023-03-04T11:10:23;102533.97;;;9.64;88.86
45403;BME280;47427;51.976;5.326;2023-03-04T11:13:54;102532.09;;;9.31;97.88
45403;BME280;47427;51.976;5.326;2023-03-04T11:17:24;102525.78;;;9.13;100.00
45403;BME280;47427;51.976;5.326;2023-03-04T11:20:47;102521.38;;;8.97;100.00
45403;BME280;47427;51.976;5.326;2023-03-04T11:24:22;102518.09;;;9.46;100.00
45403;BME280;47427;51.976;5.326;2023-03-04T11:27:54;102514.56;;;9.60;100.00
45403;BME280;47427;51.976;5.326;2023-03-04T11:31:41;102508.50;;;10.56;100.00
45403;BME280;47427;51.976;5.326;2023-03-04T11:35:44;102495.22;;;17.65;83.69
45403;BME280;47427;51.976;5.326;2023-03-04T11:39:58;102479.19;;;16.89;74.03
45403;BME280;47427;51.976;5.326;2023-03-04T11:43:37;102483.22;;;16.45;71.01
45403;BME280;47427;51.976;5.326;2023-03-04T11:47:06;102483.13;;;14.04;73.99
45403;BME280;47427;51.976;5.326;2023-03-04T11:50:52;102486.38;;;12.30;79.88
45403;BME280;47427;51.976;5.326;2023-03-04T11:58:35;102493.91;;;10.29;89.51
45403;BME280;47427;51.976;5.326;2023-03-04T12:02:27;102491.72;;;9.43;95.56
45403;BME280;47427;51.976;5.326;2023-03-04T12:10:01;102489.38;;;9.47;94.84
45403;BME280;47427;51.976;5.326;2023-03-04T12:17:42;102478.84;;;10.10;92.15
45403;BME280;47427;51.976;5.326;2023-03-04T12:21:25;102473.97;;;10.99;89.31
45403;BME280;47427;51.976;5.326;2023-03-04T12:47:59;102438.16;;;11.55;74.78
45403;BME280;47427;51.976;5.326;2023-03-04T12:51:45;102449.44;;;10.15;87.58
45403;BME280;47427;51.976;5.326;2023-03-04T12:55:13;102448.06;;;9.27;94.40
45403;BME280;47427;51.976;5.326;2023-03-04T12:58:37;102449.06;;;8.70;97.74
45403;BME280;47427;51.976;5.326;2023-03-04T13:06:57;102452.13;;;8.77;100.00
45403;BME280;47427;51.976;5.326;2023-03-04T13:10:23;102439.47;;;9.77;99.82
45403;BME280;47427;51.976;5.326;2023-03-04T13:14:03;102424.28;;;11.22;96.30
45403;BME280;47427;51.976;5.326;2023-03-04T13:17:56;102430.97;;;14.69;81.21
45403;BME280;47427;51.976;5.326;2023-03-04T13:21:30;102409.63;;;16.01;71.30
45403;BME280;47427;51.976;5.326;2023-03-04T13:24:54;102407.44;;;18.42;62.77
45403;BME280;47427;51.976;5.326;2023-03-04T13:28:21;102404.97;;;16.24;63.01
45403;BME280;47427;51.976;5.326;2023-03-04T13:32:09;102402.78;;;15.51;64.41
45403;BME280;47427;51.976;5.326;2023-03-04T13:39:25;102402.06;;;14.25;63.29
45403;BME280;47427;51.976;5.326;2023-03-04T13:42:48;102395.03;;;15.28;63.04
45403;BME280;47427;51.976;5.326;2023-03-04T13:49:41;102392.28;;;15.25;60.20
45403;BME280;47427;51.976;5.326;2023-03-04T13:53:30;102392.59;;;12.32;64.40
45403;BME280;47427;51.976;5.326;2023-03-04T14:00:22;102399.06;;;10.55;72.63
45403;BME280;47427;51.976;5.326;2023-03-04T14:03:45;102409.78;;;10.42;74.03
45403;BME280;47427;51.976;5.326;2023-03-04T14:07:36;102395.00;;;10.44;73.96
45403;BME280;47427;51.976;5.326;2023-03-04T14:10:59;102400.56;;;10.50;73.78
45403;BME280;47427;51.976;5.326;2023-03-04T14:14:29;102397.84;;;10.31;72.88
45403;BME280;47427;51.976;5.326;2023-03-04T14:17:54;102393.84;;;10.23;73.68
45403;BME280;47427;51.976;5.326;2023-03-04T14:21:17;102398.69;;;10.48;74.28
45403;BME280;47427;51.976;5.326;2023-03-04T14:24:53;102400.09;;;10.41;72.98
45403;BME280;47427;51.976;5.326;2023-03-04T14:28:18;102391.91;;;10.02;74.06
45403;BME280;47427;51.976;5.326;2023-03-04T14:31:42;102380.28;;;9.81;76.00
45403;BME280;47427;51.976;5.326;2023-03-04T14:35:06;102388.94;;;9.63;75.94
45403;BME280;47427;51.976;5.326;2023-03-04T14:38:38;102387.63;;;9.55;76.26
45403;BME280;47427;51.976;5.326;2023-03-04T14:42:09;102394.63;;;9.40;77.55
45403;BME280;47427;51.976;5.326;2023-03-04T14:45:34;102385.22;;;9.12;78.22
45403;BME280;47427;51.976;5.326;2023-03-04T14:48:57;102386.41;;;9.02;77.83
45403;BME280;47427;51.976;5.326;2023-03-04T14:52:32;102378.63;;;9.04;77.76
45403;BME280;47427;51.976;5.326;2023-03-04T14:59:34;102380.19;;;9.00;77.87
45403;BME280;47427;51.976;5.326;2023-03-04T15:03:00;102372.31;;;9.00;77.56
45403;BME280;47427;51.976;5.326;2023-03-04T15:06:27;102379.63;;;9.06;77.21
45403;BME280;47427;51.976;5.326;2023-03-04T15:09:53;102371.13;;;9.10;76.91
45403;BME280;47427;51.976;5.326;2023-03-04T15:13:44;102375.06;;;8.87;77.39
45403;BME280;47427;51.976;5.326;2023-03-04T15:17:37;102368.41;;;8.77;77.30
45403;BME280;47427;51.976;5.326;2023-03-04T15:21:04;102367.84;;;8.68;77.85
45403;BME280;47427;51.976;5.326;2023-03-04T15:24:27;102359.66;;;8.47;77.29
45403;BME280;47427;51.976;5.326;2023-03-04T15:27:50;102365.38;;;8.27;79.14
45403;BME280;47427;51.976;5.326;2023-03-04T15:31:20;102361.44;;;8.33;79.34
45403;BME280;47427;51.976;5.326;2023-03-04T15:34:44;102365.94;;;8.36;78.97
45403;BME280;47427;51.976;5.326;2023-03-04T15:38:06;102363.00;;;8.44;79.64
45403;BME280;47427;51.976;5.326;2023-03-04T15:41:28;102366.28;;;8.27;79.97
45403;BME280;47427;51.976;5.326;2023-03-04T15:44:51;102362.03;;;8.14;81.47
45403;BME280;47427;51.976;5.326;2023-03-04T15:48:15;102368.41;;;8.04;81.58
45403;BME280;47427;51.976;5.326;2023-03-04T15:51:37;102360.44;;;7.88;82.23
45403;BME280;47427;51.976;5.326;2023-03-04T15:55:00;102359.09;;;7.80;83.03
45403;BME280;47427;51.976;5.326;2023-03-04T15:58:21;102359.56;;;7.88;83.34
45403;BME280;47427;51.976;5.326;2023-03-04T16:01:43;102357.13;;;7.91;82.98
45403;BME280;47427;51.976;5.326;2023-03-04T16:05:07;102362.25;;;7.89;83.77
45403;BME280;47427;51.976;5.326;2023-03-04T16:08:30;102354.41;;;7.89;83.57
45403;BME280;47427;51.976;5.326;2023-03-04T16:11:52;102344.19;;;7.79;83.54
45403;BME280;47427;51.976;5.326;2023-03-04T16:15:21;102352.50;;;7.87;83.82
45403;BME280;47427;51.976;5.326;2023-03-04T16:18:43;102346.38;;;7.86;83.87
45403;BME280;47427;51.976;5.326;2023-03-04T16:22:10;102343.78;;;7.86;83.91
45403;BME280;47427;51.976;5.326;2023-03-04T16:25:34;102343.47;;;7.81;84.14
45403;BME280;47427;51.976;5.326;2023-03-04T16:28:56;102333.75;;;7.79;84.73
45403;BME280;47427;51.976;5.326;2023-03-04T16:32:18;102333.56;;;7.76;84.48
45403;BME280;47427;51.976;5.326;2023-03-04T16:35:40;102337.00;;;7.75;84.33
45403;BME280;47427;51.976;5.326;2023-03-04T16:39:09;102328.88;;;7.70;84.38
45403;BME280;47427;51.976;5.326;2023-03-04T16:42:36;102331.63;;;7.58;84.19
45403;BME280;47427;51.976;5.326;2023-03-04T16:45:58;102328.41;;;7.49;83.89
45403;BME280;47427;51.976;5.326;2023-03-04T16:49:20;102330.47;;;7.40;84.02
45403;BME280;47427;51.976;5.326;2023-03-04T16:52:44;102325.38;;;7.28;83.64
45403;BME280;47427;51.976;5.326;2023-03-04T16:56:15;102325.19;;;7.25;83.30
45403;BME280;47427;51.976;5.326;2023-03-04T16:59:38;102332.84;;;7.22;83.13
45403;BME280;47427;51.976;5.326;2023-03-04T17:03:00;102341.25;;;7.18;83.36
45403;BME280;47427;51.976;5.326;2023-03-04T17:06:23;102332.81;;;7.09;83.11
45403;BME280;47427;51.976;5.326;2023-03-04T17:09:46;102335.16;;;7.04;83.72
45403;BME280;47427;51.976;5.326;2023-03-04T17:13:08;102340.97;;;7.00;82.42
45403;BME280;47427;51.976;5.326;2023-03-04T17:16:30;102332.25;;;7.00;82.42
45403;BME280;47427;51.976;5.326;2023-03-04T17:19:52;102338.19;;;6.97;81.96
45403;BME280;47427;51.976;5.326;2023-03-04T17:23:15;102335.56;;;6.97;81.47
45403;BME280;47427;51.976;5.326;2023-03-04T17:26:38;102337.28;;;6.97;81.35
45403;BME280;47427;51.976;5.326;2023-03-04T17:30:00;102335.56;;;6.97;81.31
45403;BME280;47427;51.976;5.326;2023-03-04T17:33:23;102330.44;;;6.99;81.91
45403;BME280;47427;51.976;5.326;2023-03-04T17:36:47;102333.66;;;6.94;81.53
45403;BME280;47427;51.976;5.326;2023-03-04T17:40:10;102339.41;;;6.89;80.94
45403;BME280;47427;51.976;5.326;2023-03-04T17:43:35;102344.81;;;6.79;80.80
45403;BME280;47427;51.976;5.326;2023-03-04T17:46:57;102352.16;;;6.71;81.30
45403;BME280;47427;51.976;5.326;2023-03-04T17:50:18;102358.06;;;6.68;80.90
45403;BME280;47427;51.976;5.326;2023-03-04T17:53:42;102358.34;;;6.60;80.51
45403;BME280;47427;51.976;5.326;2023-03-04T17:57:04;102361.75;;;6.59;80.52
45403;BME280;47427;51.976;5.326;2023-03-04T18:00:26;102365.06;;;6.56;80.71
45403;BME280;47427;51.976;5.326;2023-03-04T18:03:50;102375.06;;;6.50;80.79
45403;BME280;47427;51.976;5.326;2023-03-04T18:07:11;102376.66;;;6.48;81.00
45403;BME280;47427;51.976;5.326;2023-03-04T18:10:54;102379.97;;;6.45;81.02
45403;BME280;47427;51.976;5.326;2023-03-04T18:14:16;102372.06;;;6.44;81.30
45403;BME280;47427;51.976;5.326;2023-03-04T18:17:39;102382.56;;;6.45;81.41
45403;BME280;47427;51.976;5.326;2023-03-04T18:21:04;102389.69;;;6.48;81.88
45403;BME280;47427;51.976;5.326;2023-03-04T18:24:25;102380.09;;;6.47;81.41
45403;BME280;47427;51.976;5.326;2023-03-04T18:27:48;102380.66;;;6.43;81.33
45403;BME280;47427;51.976;5.326;2023-03-04T18:31:10;102385.09;;;6.44;81.81
45403;BME280;47427;51.976;5.326;2023-03-04T18:34:32;102384.91;;;6.41;82.44
45403;BME280;47427;51.976;5.326;2023-03-04T18:37:55;102381.78;;;6.33;82.77
45403;BME280;47427;51.976;5.326;2023-03-04T18:41:17;102375.44;;;6.29;83.22
45403;BME280;47427;51.976;5.326;2023-03-04T18:44:39;102383.75;;;6.24;83.67
45403;BME280;47427;51.976;5.326;2023-03-04T18:48:02;102378.66;;;6.25;84.30
45403;BME280;47427;51.976;5.326;2023-03-04T18:51:24;102370.91;;;6.27;84.83
45403;BME280;47427;51.976;5.326;2023-03-04T18:54:47;102369.00;;;6.24;84.62
45403;BME280;47427;51.976;5.326;2023-03-04T18:58:09;102361.19;;;6.24;84.30
45403;BME280;47427;51.976;5.326;2023-03-04T19:01:31;102370.91;;;6.27;84.49
45403;BME280;47427;51.976;5.326;2023-03-04T19:04:57;102371.59;;;6.24;84.67
45403;BME280;47427;51.976;5.326;2023-03-04T19:08:21;102363.78;;;6.24;84.82
45403;BME280;47427;51.976;5.326;2023-03-04T19:11:44;102367.00;;;6.20;84.25
45403;BME280;47427;51.976;5.326;2023-03-04T19:15:08;102364.97;;;6.16;84.23
45403;BME280;47427;51.976;5.326;2023-03-04T19:18:30;102366.69;;;6.16;84.59
45403;BME280;47427;51.976;5.326;2023-03-04T19:21:53;102364.66;;;6.12;85.28
45403;BME280;47427;51.976;5.326;2023-03-04T19:25:15;102363.84;;;6.13;85.47